Time;durP1;ratioP1;P1;durP2;ratioP2;P2;SDS_P1;SDS_P2;PMS_P1;PMS_P2;Temp;Humidity;BMP_temperature;BMP_pressure;BME280_temperature;BME280_humidity;BME280_pressure;Samples;Min_cycle;Max_cycle;Signal;HPM_P1;HPM_P2
2021/10/16 00:00:02;;;;;;;15.00;3.90;;;;;;;6.66;85.48;100540.39;113325;1195;24443;-58
2021/10/16 00:02:53;;;;;;;16.40;5.00;;;;;;;6.64;85.48;100543.21;113329;1196;22490;-55
2021/10/16 00:05:24;;;;;;;17.70;4.20;;;;;;;6.63;85.43;100540.08;113622;1195;22486;-57
2021/10/16 00:07:55;;;;;;;17.70;4.50;;;;;;;6.61;85.45;100539.81;113570;1190;24047;-54
2021/10/16 00:10:27;;;;;;;15.90;4.30;;;;;;;6.60;85.31;100539.36;113519;1196;23819;-55
2021/10/16 00:12:59;;;;;;;15.90;3.60;;;;;;;6.59;85.37;100539.82;113591;1196;25334;-55
2021/10/16 00:15:30;;;;;;;16.60;3.60;;;;;;;6.57;85.33;100546.94;113498;1196;22444;-54
2021/10/16 00:18:01;;;;;;;18.60;4.60;;;;;;;6.56;85.27;100546.90;113494;1196;22458;-57
2021/10/16 00:20:32;;;;;;;15.60;3.50;;;;;;;6.55;85.33;100543.09;113561;1190;25203;-57
2021/10/16 00:23:03;;;;;;;15.50;3.50;;;;;;;6.52;85.33;100545.41;113370;1190;22433;-56
2021/10/16 00:25:34;;;;;;;13.40;4.00;;;;;;;6.50;85.29;100546.52;113640;1196;25441;-58
2021/10/16 00:28:06;;;;;;;19.10;4.30;;;;;;;6.47;85.60;100545.55;113634;1196;22764;-63
2021/10/16 00:30:37;;;;;;;13.20;3.60;;;;;;;6.46;85.57;100543.64;113800;1189;22855;-58
2021/10/16 00:33:08;;;;;;;15.00;4.60;;;;;;;6.45;85.54;100546.04;113483;1196;22430;-56
2021/10/16 00:35:39;;;;;;;13.80;3.70;;;;;;;6.43;85.51;100546.98;113316;1190;22429;-58
2021/10/16 00:38:13;;;;;;;14.00;3.90;;;;;;;6.42;85.52;100551.05;113619;1194;25058;-57
2021/10/16 00:40:46;;;;;;;14.60;4.00;;;;;;;6.41;85.45;100548.93;113495;1189;22432;-56
2021/10/16 00:43:18;;;;;;;15.50;3.60;;;;;;;6.40;85.50;100548.89;113386;1196;22457;-57
2021/10/16 00:45:49;;;;;;;15.10;3.80;;;;;;;6.37;85.59;100549.45;113549;1196;22585;-60
2021/10/16 00:48:21;;;;;;;12.40;3.50;;;;;;;6.35;85.56;100551.98;113479;1196;22469;-57
2021/10/16 00:50:59;;;;;;;13.50;3.50;;;;;;;6.32;85.64;100554.34;113485;1196;25111;-57
2021/10/16 00:53:31;;;;;;;14.10;4.10;;;;;;;6.31;85.58;100560.89;113621;1196;25120;-57
2021/10/16 00:56:02;;;;;;;14.60;3.70;;;;;;;6.30;85.58;100561.73;113755;1196;23934;-59
2021/10/16 00:58:35;;;;;;;16.40;4.70;;;;;;;6.29;85.73;100556.85;113611;1196;24190;-57
2021/10/16 01:01:05;;;;;;;15.70;4.30;;;;;;;6.26;85.74;100557.77;113678;1196;22437;-61
2021/10/16 01:03:37;;;;;;;16.30;4.80;;;;;;;6.25;85.74;100561.38;113330;1196;23176;-58
2021/10/16 01:06:09;;;;;;;17.10;4.60;;;;;;;6.24;85.65;100562.05;113571;1194;24080;-57
2021/10/16 01:08:40;;;;;;;18.00;5.00;;;;;;;6.23;85.69;100561.92;113805;1195;24077;-57
2021/10/16 01:11:11;;;;;;;15.50;4.00;;;;;;;6.21;85.76;100564.05;113385;1190;25183;-54
2021/10/16 01:13:43;;;;;;;16.80;5.60;;;;;;;6.19;85.80;100561.09;113335;1189;22471;-57
2021/10/16 01:16:15;;;;;;;20.00;5.80;;;;;;;6.18;85.78;100561.91;113596;1196;22557;-56
2021/10/16 01:18:47;;;;;;;18.00;5.40;;;;;;;6.18;85.99;100560.56;113607;1196;25188;-57
2021/10/16 01:21:18;;;;;;;16.00;4.60;;;;;;;6.17;85.95;100561.23;113609;1190;22423;-54
2021/10/16 01:23:50;;;;;;;15.70;4.30;;;;;;;6.16;85.94;100561.73;113598;1190;25749;-56
2021/10/16 01:26:22;;;;;;;21.30;6.00;;;;;;;6.14;86.03;100556.73;113387;1196;23400;-60
2021/10/16 01:28:53;;;;;;;18.70;5.20;;;;;;;6.12;86.08;100558.54;113460;1190;22433;-58
2021/10/16 01:31:25;;;;;;;20.00;5.40;;;;;;;6.12;86.18;100556.17;113584;1189;23032;-56
2021/10/16 01:33:57;;;;;;;22.10;5.90;;;;;;;6.11;86.15;100554.91;113575;1196;22437;-55
2021/10/16 01:36:38;;;;;;;17.60;4.80;;;;;;;6.10;86.05;100558.05;113463;1196;24169;-57
2021/10/16 01:39:10;;;;;;;19.10;5.80;;;;;;;6.10;86.19;100558.70;113428;1196;22433;-57
2021/10/16 01:41:41;;;;;;;23.10;5.80;;;;;;;6.10;86.17;100557.50;113433;1196;23079;-59
2021/10/16 01:44:14;;;;;;;23.50;6.10;;;;;;;6.10;86.26;100550.61;113557;1196;22422;-55
2021/10/16 01:46:45;;;;;;;20.10;5.40;;;;;;;6.08;86.26;100552.38;113509;1195;24079;-57
2021/10/16 01:49:18;;;;;;;16.00;4.70;;;;;;;6.08;86.44;100550.41;113532;1196;25060;-58
2021/10/16 01:51:53;;;;;;;27.00;5.70;;;;;;;6.08;86.58;100554.29;113309;1196;22436;-57
2021/10/16 01:54:24;;;;;;;11.90;4.20;;;;;;;6.09;86.75;100556.25;113245;1174;22700;-54
2021/10/16 01:56:58;;;;;;;19.70;5.40;;;;;;;6.10;86.90;100558.20;113401;1190;22422;-57
2021/10/16 01:59:29;;;;;;;20.00;4.70;;;;;;;6.12;86.95;100556.16;113586;1196;22412;-56
2021/10/16 02:02:01;;;;;;;17.40;4.50;;;;;;;6.12;87.09;100554.41;113358;1196;22426;-56
2021/10/16 02:04:32;;;;;;;17.10;4.60;;;;;;;6.13;87.19;100555.72;113230;1196;22429;-57
2021/10/16 02:07:03;;;;;;;16.60;5.10;;;;;;;6.15;87.20;100557.02;113537;1196;22415;-57
2021/10/16 02:09:34;;;;;;;19.40;5.20;;;;;;;6.15;87.13;100555.29;113556;1196;22439;-59
2021/10/16 02:12:07;;;;;;;17.50;4.30;;;;;;;6.15;87.06;100550.85;113457;1190;22528;-54
2021/10/16 02:14:38;;;;;;;17.60;4.70;;;;;;;6.15;86.98;100555.27;113196;1196;26415;-59
2021/10/16 02:17:09;;;;;;;17.40;5.20;;;;;;;6.13;87.05;100558.33;113358;1195;22436;-53
2021/10/16 02:19:40;;;;;;;17.00;5.30;;;;;;;6.13;87.00;100558.50;113529;1191;24087;-58
2021/10/16 02:22:11;;;;;;;17.80;4.60;;;;;;;6.12;86.99;100560.66;113746;1196;22482;-56
2021/10/16 02:24:42;;;;;;;16.30;4.40;;;;;;;6.11;87.03;100561.10;113522;1196;22435;-55
2021/10/16 02:27:14;;;;;;;15.00;4.00;;;;;;;6.11;87.00;100566.34;113487;1190;25142;-57
2021/10/16 02:29:44;;;;;;;17.40;4.10;;;;;;;6.10;87.08;100565.02;113635;1196;24047;-57
2021/10/16 02:32:16;;;;;;;17.30;4.30;;;;;;;6.09;87.04;100568.04;113545;1190;25136;-57
2021/10/16 02:34:47;;;;;;;16.60;3.60;;;;;;;6.09;87.23;100569.86;113384;1190;24176;-57
2021/10/16 02:37:17;;;;;;;16.60;4.60;;;;;;;6.10;87.25;100572.30;113297;1190;22426;-55
2021/10/16 02:39:49;;;;;;;16.40;4.30;;;;;;;6.09;87.32;100576.43;113257;1193;22476;-60
2021/10/16 02:42:19;;;;;;;14.10;3.90;;;;;;;6.10;87.34;100577.38;113489;1195;22430;-57
2021/10/16 02:44:50;;;;;;;16.20;3.60;;;;;;;6.09;87.39;100578.99;113347;1189;22429;-56
2021/10/16 02:47:21;;;;;;;15.60;3.60;;;;;;;6.09;87.57;100579.54;113342;1196;24787;-60
2021/10/16 02:49:53;;;;;;;20.80;5.00;;;;;;;6.10;87.38;100584.04;113528;1196;24084;-53
2021/10/16 02:52:24;;;;;;;16.60;3.60;;;;;;;6.10;87.54;100586.09;113416;1190;25309;-57
2021/10/16 02:54:55;;;;;;;12.40;3.10;;;;;;;6.12;87.79;100587.59;113337;1196;22480;-59
2021/10/16 02:57:26;;;;;;;13.70;3.60;;;;;;;6.14;87.67;100589.30;113820;1196;25159;-57
2021/10/16 02:59:57;;;;;;;15.40;3.90;;;;;;;6.14;87.57;100593.70;113513;1196;25215;-55
2021/10/16 03:02:29;;;;;;;13.10;2.60;;;;;;;6.14;87.46;100593.89;113247;1196;22426;-56
2021/10/16 03:05:01;;;;;;;13.20;3.50;;;;;;;6.13;87.45;100599.54;113398;1195;22412;-57
2021/10/16 03:07:32;;;;;;;17.60;3.30;;;;;;;6.12;87.35;100605.20;113362;1195;25322;-58
2021/10/16 03:10:03;;;;;;;13.20;2.90;;;;;;;6.11;87.33;100604.49;113571;1196;22445;-54
2021/10/16 03:12:34;;;;;;;14.30;3.40;;;;;;;6.11;87.28;100606.86;113707;1189;22529;-54
2021/10/16 03:15:06;;;;;;;12.80;2.70;;;;;;;6.10;87.12;100610.87;113516;1195;22562;-55
2021/10/16 03:17:37;;;;;;;11.60;2.70;;;;;;;6.09;86.95;100611.91;113665;1195;22470;-56
2021/10/16 03:20:10;;;;;;;16.00;3.00;;;;;;;6.08;87.05;100609.73;113569;1195;22618;-57
2021/10/16 03:22:41;;;;;;;23.20;4.00;;;;;;;6.05;86.81;100615.36;113789;1196;22425;-56
2021/10/16 03:25:12;;;;;;;18.10;3.10;;;;;;;6.02;86.96;100616.48;113489;1196;22457;-57
2021/10/16 03:27:43;;;;;;;14.00;3.30;;;;;;;6.00;86.82;100622.33;113699;1196;25067;-55
2021/10/16 03:30:14;;;;;;;11.80;2.90;;;;;;;5.97;86.85;100621.77;113455;1190;22441;-58
2021/10/16 03:32:45;;;;;;;15.20;3.30;;;;;;;5.94;86.86;100624.16;113241;1195;22443;-56
2021/10/16 03:35:16;;;;;;;22.00;3.40;;;;;;;5.91;86.88;100623.13;113382;1196;22597;-56
2021/10/16 03:37:47;;;;;;;14.80;3.60;;;;;;;5.88;86.93;100624.55;113347;1196;25146;-56
2021/10/16 03:40:18;;;;;;;18.20;3.70;;;;;;;5.86;87.01;100620.89;113678;1190;26500;-57
2021/10/16 03:42:49;;;;;;;19.30;3.60;;;;;;;5.84;87.06;100625.84;113296;1196;22407;-60
2021/10/16 03:45:21;;;;;;;17.30;4.20;;;;;;;5.82;87.12;100628.95;113221;1195;26282;-55
2021/10/16 03:47:52;;;;;;;15.60;5.30;;;;;;;5.81;87.05;100628.29;113481;1196;22442;-58
2021/10/16 03:50:23;;;;;;;19.20;4.00;;;;;;;5.80;87.15;100631.72;113394;1195;23664;-58
2021/10/16 03:52:54;;;;;;;15.60;4.40;;;;;;;5.78;87.16;100634.23;113404;1195;22433;-54
2021/10/16 03:55:25;;;;;;;17.00;4.30;;;;;;;5.77;87.13;100633.70;113299;1195;25381;-58
2021/10/16 03:57:56;;;;;;;17.70;3.90;;;;;;;5.76;87.08;100634.98;113494;1196;25068;-56
2021/10/16 04:00:27;;;;;;;16.30;3.90;;;;;;;5.74;86.94;100636.36;113288;1195;22524;-58
2021/10/16 04:03:03;;;;;;;14.30;3.70;;;;;;;5.74;86.88;100634.55;113420;1189;22427;-57
2021/10/16 04:05:35;;;;;;;17.10;3.90;;;;;;;5.73;86.57;100635.45;113479;1195;22439;-56
2021/10/16 04:08:08;;;;;;;15.20;3.80;;;;;;;5.71;86.28;100636.30;113477;1193;22438;-58
2021/10/16 04:10:39;;;;;;;14.20;4.00;;;;;;;5.67;86.15;100640.75;113389;1172;24085;-57
2021/10/16 04:13:10;;;;;;;19.40;4.40;;;;;;;5.63;86.03;100640.84;113517;1196;26270;-56
2021/10/16 04:15:41;;;;;;;17.00;3.70;;;;;;;5.60;85.93;100641.17;113343;1196;25069;-59
2021/10/16 04:18:14;;;;;;;17.60;4.90;;;;;;;5.56;86.02;100646.98;113553;1190;25100;-55
2021/10/16 04:20:44;;;;;;;13.00;4.40;;;;;;;5.53;85.82;100648.88;113384;1189;25175;-58
2021/10/16 04:23:15;;;;;;;20.00;4.90;;;;;;;5.50;85.70;100650.93;113523;1190;22537;-59
2021/10/16 04:25:46;;;;;;;15.60;4.60;;;;;;;5.46;85.76;100654.92;113601;1195;22596;-56
2021/10/16 04:28:17;;;;;;;15.10;4.50;;;;;;;5.41;85.74;100660.73;113329;1195;25114;-55
2021/10/16 04:30:49;;;;;;;18.90;4.70;;;;;;;5.38;85.62;100666.52;113529;1196;22451;-58
2021/10/16 04:33:19;;;;;;;16.70;4.80;;;;;;;5.34;85.40;100673.58;113623;1195;26305;-57
2021/10/16 04:35:50;;;;;;;17.20;4.70;;;;;;;5.29;85.56;100673.85;113206;1195;22439;-56
2021/10/16 04:38:22;;;;;;;18.00;4.50;;;;;;;5.28;85.59;100679.73;113398;1196;25136;-60
2021/10/16 04:40:53;;;;;;;18.00;3.50;;;;;;;5.27;85.67;100682.14;113354;1189;22429;-57
2021/10/16 04:43:24;;;;;;;15.10;3.50;;;;;;;5.26;85.81;100687.77;113350;1195;22420;-57
2021/10/16 04:45:55;;;;;;;13.00;3.30;;;;;;;5.25;86.09;100685.52;113473;1196;25149;-57
2021/10/16 04:48:27;;;;;;;15.90;3.40;;;;;;;5.26;86.57;100689.41;113477;1196;23808;-58
2021/10/16 04:50:58;;;;;;;16.90;3.50;;;;;;;5.28;86.94;100690.88;113679;1196;24078;-56
2021/10/16 04:53:28;;;;;;;17.90;4.40;;;;;;;5.33;87.40;100690.92;113335;1180;25450;-59
2021/10/16 04:55:59;;;;;;;13.60;3.20;;;;;;;5.37;87.71;100690.50;113345;1195;25111;-57
2021/10/16 04:58:30;;;;;;;12.70;3.10;;;;;;;5.44;88.39;100697.38;113476;1195;22446;-56
2021/10/16 05:01:01;;;;;;;17.70;3.60;;;;;;;5.51;88.78;100696.96;113488;1195;24114;-57
2021/10/16 05:03:32;;;;;;;17.50;4.80;;;;;;;5.59;89.06;100695.66;113555;1193;22477;-57
2021/10/16 05:06:03;;;;;;;23.30;5.40;;;;;;;5.66;89.22;100695.70;113470;1195;22444;-57
2021/10/16 05:08:35;;;;;;;25.30;6.60;;;;;;;5.72;89.30;100692.77;117689;1195;23095;-58
2021/10/16 05:11:06;;;;;;;23.30;6.10;;;;;;;5.78;89.13;100694.91;117641;1195;22251;-58
2021/10/16 05:13:37;;;;;;;19.60;5.40;;;;;;;5.82;89.21;100693.86;117661;1195;22311;-58
2021/10/16 05:16:08;;;;;;;18.60;5.70;;;;;;;5.86;89.15;100695.21;117667;1195;22221;-57
2021/10/16 05:18:38;;;;;;;17.10;4.90;;;;;;;5.89;89.04;100694.19;117658;1195;22301;-58
2021/10/16 05:21:10;;;;;;;17.90;5.80;;;;;;;5.93;89.20;100695.83;117651;1195;22169;-60
2021/10/16 05:23:40;;;;;;;22.50;6.20;;;;;;;5.96;89.04;100696.63;117636;1195;23371;-58
2021/10/16 05:26:11;;;;;;;22.20;5.40;;;;;;;5.99;89.04;100695.13;117668;1189;22969;-59
2021/10/16 05:28:42;;;;;;;29.10;6.30;;;;;;;6.01;89.06;100702.83;117616;1190;22326;-59
2021/10/16 05:31:13;;;;;;;19.90;5.80;;;;;;;6.03;88.93;100706.09;117651;1195;22394;-58
2021/10/16 05:33:45;;;;;;;16.90;5.40;;;;;;;6.05;89.07;100709.76;114556;1195;22420;-59
2021/10/16 05:36:16;;;;;;;17.30;5.10;;;;;;;6.06;89.02;100710.92;113484;1195;22996;-59
2021/10/16 05:38:47;;;;;;;21.70;5.30;;;;;;;6.07;88.99;100704.23;113392;1195;25335;-56
2021/10/16 05:41:18;;;;;;;18.40;4.40;;;;;;;6.08;89.03;100716.80;113446;1190;25157;-62
2021/10/16 05:43:48;;;;;;;18.20;4.50;;;;;;;6.08;89.10;100717.98;113371;1195;22415;-58
2021/10/16 05:46:20;;;;;;;17.50;5.20;;;;;;;6.09;89.10;100718.98;113502;1190;22431;-57
2021/10/16 05:48:51;;;;;;;21.20;5.80;;;;;;;6.10;89.22;100726.64;113524;1195;23741;-59
2021/10/16 05:51:22;;;;;;;20.80;4.20;;;;;;;6.11;89.13;100725.28;113260;1195;25133;-61
2021/10/16 05:53:52;;;;;;;20.20;4.50;;;;;;;6.11;89.15;100727.27;113345;1195;23107;-57
2021/10/16 05:56:23;;;;;;;24.80;7.10;;;;;;;6.11;89.19;100728.91;113236;1190;25111;-57
2021/10/16 05:58:58;;;;;;;24.00;7.30;;;;;;;6.12;89.14;100732.77;113195;1190;25007;-57
2021/10/16 06:01:30;;;;;;;25.30;6.90;;;;;;;6.13;89.18;100735.35;113438;1190;22423;-57
2021/10/16 06:04:01;;;;;;;21.50;6.20;;;;;;;6.15;89.37;100735.06;113357;1190;22427;-59
2021/10/16 06:06:32;;;;;;;21.80;6.20;;;;;;;6.16;89.28;100740.34;113725;1195;22422;-59
2021/10/16 06:09:03;;;;;;;24.80;6.10;;;;;;;6.17;89.30;100744.59;113592;1189;25017;-56
2021/10/16 06:11:34;;;;;;;21.10;5.70;;;;;;;6.17;89.28;100750.06;113512;1190;24029;-57
2021/10/16 06:14:05;;;;;;;24.30;8.00;;;;;;;6.18;89.42;100746.80;113277;1195;22611;-61
2021/10/16 06:16:36;;;;;;;26.40;7.00;;;;;;;6.19;89.39;100752.05;113352;1195;22444;-57
2021/10/16 06:19:07;;;;;;;23.30;6.70;;;;;;;6.22;89.49;100758.31;113338;1190;22435;-60
2021/10/16 06:21:38;;;;;;;21.20;5.90;;;;;;;6.24;89.39;100763.89;113448;1196;22982;-58
2021/10/16 06:24:09;;;;;;;23.60;6.90;;;;;;;6.25;89.30;100762.83;113412;1190;22432;-57
2021/10/16 06:26:40;;;;;;;25.10;7.10;;;;;;;6.26;89.31;100770.56;113660;1190;22434;-63
2021/10/16 06:29:11;;;;;;;20.40;6.10;;;;;;;6.28;89.38;100772.89;113578;1190;25843;-58
2021/10/16 06:31:42;;;;;;;19.20;6.40;;;;;;;6.29;89.30;100775.88;113222;1190;25079;-59
2021/10/16 06:34:13;;;;;;;20.20;7.50;;;;;;;6.30;89.37;100784.41;113256;1196;24025;-58
2021/10/16 06:36:44;;;;;;;23.10;6.90;;;;;;;6.30;89.20;100787.97;113527;1196;24807;-58
2021/10/16 06:39:15;;;;;;;24.70;6.40;;;;;;;6.31;89.25;100790.79;113254;1190;22440;-58
2021/10/16 06:41:46;;;;;;;23.60;7.30;;;;;;;6.32;89.33;100789.51;113294;1195;22594;-56
2021/10/16 06:44:17;;;;;;;22.60;7.10;;;;;;;6.33;89.44;100791.44;113173;1189;22439;-59
2021/10/16 06:46:49;;;;;;;24.20;8.30;;;;;;;6.36;89.40;100796.68;113282;1195;22522;-59
2021/10/16 06:49:20;;;;;;;31.50;9.20;;;;;;;6.37;89.46;100796.25;113318;1195;24151;-62
2021/10/16 06:51:51;;;;;;;25.90;7.70;;;;;;;6.39;89.46;100797.15;113435;1196;24103;-58
2021/10/16 06:54:22;;;;;;;20.60;6.50;;;;;;;6.41;89.36;100798.38;113461;1189;25220;-64
2021/10/16 06:56:53;;;;;;;23.40;7.40;;;;;;;6.42;89.47;100805.38;113747;1189;22448;-59
2021/10/16 06:59:24;;;;;;;22.20;7.30;;;;;;;6.42;89.44;100806.17;113618;1195;22993;-57
2021/10/16 07:01:55;;;;;;;20.80;7.20;;;;;;;6.42;89.33;100806.40;113423;1196;24131;-58
2021/10/16 07:04:27;;;;;;;27.10;6.70;;;;;;;6.43;89.43;100811.85;114141;1195;25213;-62
2021/10/16 07:06:58;;;;;;;25.30;6.40;;;;;;;6.46;89.44;100811.94;113402;1190;22431;-64
2021/10/16 07:09:29;;;;;;;24.20;6.10;;;;;;;6.49;89.59;100810.51;113587;1190;24038;-59
2021/10/16 07:12:00;;;;;;;21.10;6.50;;;;;;;6.53;89.72;100814.05;113569;1195;22610;-60
2021/10/16 07:14:32;;;;;;;23.80;7.10;;;;;;;6.55;89.73;100810.90;113960;1189;25127;-57
2021/10/16 07:17:03;;;;;;;20.00;6.30;;;;;;;6.60;89.71;100815.29;113605;1189;22904;-57
2021/10/16 07:19:34;;;;;;;19.30;6.90;;;;;;;6.63;89.66;100817.58;113819;1195;22536;-56
2021/10/16 07:22:05;;;;;;;24.40;6.70;;;;;;;6.66;89.46;100821.78;113754;1196;25143;-61
2021/10/16 07:24:37;;;;;;;22.10;7.50;;;;;;;6.68;89.48;100823.55;113869;1196;22452;-58
2021/10/16 07:27:08;;;;;;;18.80;5.40;;;;;;;6.70;89.34;100823.89;113621;1196;22642;-56
2021/10/16 07:29:39;;;;;;;29.70;8.90;;;;;;;6.70;89.29;100826.74;113844;1196;25019;-58
2021/10/16 07:32:11;;;;;;;23.90;7.30;;;;;;;6.70;89.46;100831.82;113703;1195;23381;-56
2021/10/16 07:34:42;;;;;;;22.20;7.50;;;;;;;6.70;89.44;100833.48;113665;1196;22548;-58
2021/10/16 07:37:13;;;;;;;25.20;7.20;;;;;;;6.71;89.52;100836.77;113652;1189;22471;-60
2021/10/16 07:39:44;;;;;;;28.20;7.30;;;;;;;6.73;89.62;100840.52;113689;1196;25856;-57
2021/10/16 07:42:15;;;;;;;20.10;6.00;;;;;;;6.74;89.59;100839.08;113604;1196;22430;-59
2021/10/16 07:44:47;;;;;;;21.80;6.50;;;;;;;6.74;89.76;100846.45;113571;1195;22413;-58
2021/10/16 07:47:17;;;;;;;21.80;5.80;;;;;;;6.74;89.68;100849.62;113284;1195;22430;-56
2021/10/16 07:49:48;;;;;;;27.60;6.90;;;;;;;6.75;89.55;100853.46;113333;1194;25117;-57
2021/10/16 07:52:19;;;;;;;21.30;7.20;;;;;;;6.77;89.76;100853.27;113561;1195;23767;-60
2021/10/16 07:54:50;;;;;;;23.90;6.30;;;;;;;6.79;89.61;100855.11;113454;1196;25010;-60
2021/10/16 07:57:21;;;;;;;13.50;5.20;;;;;;;6.80;89.55;100857.45;113300;1189;22473;-61
2021/10/16 07:59:52;;;;;;;28.00;6.70;;;;;;;6.83;89.65;100860.80;114089;1190;24117;-59
2021/10/16 08:02:24;;;;;;;27.10;7.70;;;;;;;6.86;89.71;100862.42;114119;1195;24022;-59
2021/10/16 08:04:58;;;;;;;31.40;7.60;;;;;;;6.93;89.70;100866.76;113961;1195;22434;-60
2021/10/16 08:07:30;;;;;;;22.30;7.40;;;;;;;6.99;89.58;100866.91;113926;1195;22443;-58
2021/10/16 08:10:01;;;;;;;28.70;7.50;;;;;;;7.06;89.42;100870.61;114597;1195;22436;-58
2021/10/16 08:12:31;;;;;;;21.50;7.70;;;;;;;7.11;89.40;100870.52;114390;1189;23537;-61
2021/10/16 08:15:02;;;;;;;23.30;6.60;;;;;;;7.15;89.07;100870.52;113942;1195;22410;-60
2021/10/16 08:17:34;;;;;;;21.80;7.20;;;;;;;7.15;88.99;100871.36;113861;1195;22493;-60
2021/10/16 08:20:08;;;;;;;23.40;7.50;;;;;;;7.18;89.06;100878.90;113893;1195;23623;-58
2021/10/16 08:22:42;;;;;;;24.20;7.30;;;;;;;7.20;88.88;100881.39;114083;1190;24040;-60
2021/10/16 08:25:14;;;;;;;20.10;6.20;;;;;;;7.20;88.67;100881.95;114011;1196;22441;-59
2021/10/16 08:27:47;;;;;;;21.30;6.70;;;;;;;7.19;88.66;100886.57;114162;1196;22432;-61
2021/10/16 08:30:19;;;;;;;28.70;8.70;;;;;;;7.18;88.48;100891.98;113943;1195;22474;-60
2021/10/16 08:32:50;;;;;;;21.00;7.60;;;;;;;7.16;88.50;100890.93;113866;1195;26280;-58
2021/10/16 08:35:21;;;;;;;24.50;6.40;;;;;;;7.17;88.61;100889.32;113937;1195;22441;-62
2021/10/16 08:37:52;;;;;;;23.20;6.40;;;;;;;7.19;88.49;100888.64;114128;1189;22426;-58
2021/10/16 08:40:25;;;;;;;21.90;6.20;;;;;;;7.21;88.63;100897.94;113883;1195;24006;-60
2021/10/16 08:42:56;;;;;;;20.90;6.80;;;;;;;7.24;88.28;100895.16;114007;1196;26493;-58
2021/10/16 08:45:27;;;;;;;20.80;6.10;;;;;;;7.28;88.47;100898.52;113937;1195;26279;-58
2021/10/16 08:48:00;;;;;;;22.60;7.20;;;;;;;7.32;88.38;100897.77;113748;1189;24049;-59
2021/10/16 08:50:33;;;;;;;24.40;6.50;;;;;;;7.34;88.45;100890.95;113934;1195;22434;-61
2021/10/16 08:53:04;;;;;;;22.20;6.40;;;;;;;7.39;88.47;100888.52;114159;1196;22429;-58
2021/10/16 08:55:35;;;;;;;20.10;5.60;;;;;;;7.42;88.25;100890.51;113941;1195;22440;-60
2021/10/16 08:58:07;;;;;;;21.30;6.50;;;;;;;7.43;87.96;100895.17;114067;1196;22438;-62
2021/10/16 09:00:52;;;;;;;19.30;5.50;;;;;;;7.42;88.01;100896.77;114385;1195;22373;-59
2021/10/16 09:03:27;;;;;;;23.50;6.20;;;;;;;7.45;88.12;100895.76;114096;1196;22442;-59
2021/10/16 09:06:07;;;;;;;19.40;5.50;;;;;;;7.47;88.24;100898.22;113978;1195;22421;-59
2021/10/16 09:08:41;;;;;;;20.30;6.20;;;;;;;7.51;88.40;100896.42;113846;1196;25129;-61
2021/10/16 09:11:22;;;;;;;25.40;6.30;;;;;;;7.55;87.96;100905.43;114214;1195;22425;-60
2021/10/16 09:13:57;;;;;;;19.30;6.20;;;;;;;7.58;87.82;100907.98;114014;1190;22450;-60
2021/10/16 09:16:34;;;;;;;22.60;6.00;;;;;;;7.61;87.79;100906.36;113895;1195;22425;-61
2021/10/16 09:19:12;;;;;;;18.70;6.10;;;;;;;7.64;87.91;100908.27;114376;1196;22436;-61
2021/10/16 09:21:47;;;;;;;19.60;6.00;;;;;;;7.67;87.72;100914.58;113994;1189;22556;-58
2021/10/16 09:24:21;;;;;;;19.50;5.00;;;;;;;7.71;87.64;100915.19;113448;1190;25026;-59
2021/10/16 09:26:54;;;;;;;20.30;4.80;;;;;;;7.74;87.43;100916.21;113319;1196;22880;-59
2021/10/16 09:29:29;;;;;;;14.40;4.00;;;;;;;7.78;87.49;100916.16;113671;1196;22437;-59
2021/10/16 09:32:01;;;;;;;21.00;4.90;;;;;;;7.85;87.47;100914.52;113653;1195;23539;-57
2021/10/16 09:34:34;;;;;;;21.30;4.70;;;;;;;7.93;87.54;100918.88;113274;1196;25061;-57
2021/10/16 09:37:10;;;;;;;27.90;6.70;;;;;;;8.03;87.60;100914.52;113304;1196;22486;-57
2021/10/16 09:39:57;;;;;;;20.30;5.60;;;;;;;8.09;87.15;100915.80;113246;1196;25126;-58
2021/10/16 09:42:42;;;;;;;17.60;3.80;;;;;;;8.08;86.42;100922.85;113237;1196;24118;-58
2021/10/16 09:45:15;;;;;;;19.60;4.50;;;;;;;8.09;87.10;100921.85;113406;1195;22435;-58
2021/10/16 09:47:57;;;;;;;13.90;4.00;;;;;;;8.15;86.66;100925.55;113408;1188;22794;-59
2021/10/16 09:50:28;;;;;;;16.30;4.00;;;;;;;8.16;86.36;100927.69;113467;1195;22427;-58
2021/10/16 09:52:59;;;;;;;22.70;5.40;;;;;;;8.17;86.05;100925.17;113242;1195;25023;-58
2021/10/16 09:55:33;;;;;;;17.50;4.40;;;;;;;8.22;86.39;100922.16;113162;1195;25332;-58
2021/10/16 09:58:04;;;;;;;19.70;4.80;;;;;;;8.22;85.98;100924.23;113213;1196;24186;-58
2021/10/16 10:00:38;;;;;;;20.10;4.80;;;;;;;8.26;86.11;100926.89;113233;1196;22620;-57
2021/10/16 10:03:12;;;;;;;19.60;4.20;;;;;;;8.28;86.06;100920.00;113340;1195;26293;-59
2021/10/16 10:05:45;;;;;;;24.00;4.80;;;;;;;8.32;86.40;100918.52;113278;1195;23960;-57
2021/10/16 10:08:18;;;;;;;21.00;4.70;;;;;;;8.34;85.91;100919.66;113358;1195;25035;-57
2021/10/16 10:10:50;;;;;;;20.50;3.90;;;;;;;8.35;85.81;100919.95;113157;1196;22466;-57
2021/10/16 10:13:24;;;;;;;15.20;2.70;;;;;;;8.39;85.88;100920.43;113302;1195;22589;-59
2021/10/16 10:15:56;;;;;;;21.90;4.10;;;;;;;8.44;85.10;100922.83;113297;1196;22449;-58
2021/10/16 10:21:17;;;;;;;19.00;4.60;;;;;;;8.49;85.49;100917.24;113213;1190;22413;-58
2021/10/16 10:23:59;;;;;;;30.40;10.40;;;;;;;8.54;85.14;100914.86;113239;1174;24068;-57
2021/10/16 10:26:32;;;;;;;18.10;4.30;;;;;;;8.60;85.24;100918.29;113320;1190;22416;-55
2021/10/16 10:29:05;;;;;;;19.30;3.70;;;;;;;8.63;85.01;100914.23;113342;1190;22437;-58
2021/10/16 10:32:03;;;;;;;18.60;4.60;;;;;;;8.67;85.45;100911.06;113518;1195;22440;-58
2021/10/16 10:34:38;;;;;;;17.90;4.00;;;;;;;8.74;85.17;100912.24;113323;1195;22506;-57
2021/10/16 10:37:14;;;;;;;21.20;4.60;;;;;;;8.81;85.38;100908.74;113431;1195;22434;-58
2021/10/16 10:39:51;;;;;;;16.40;3.20;;;;;;;8.90;85.02;100910.49;113666;1188;24147;-59
2021/10/16 10:42:54;;;;;;;17.50;2.70;;;;;;;8.96;84.39;100911.07;114456;1189;90278;-60
2021/10/16 10:45:45;;;;;;;13.40;2.80;;;;;;;9.01;83.79;100906.06;112738;1190;22446;-59
2021/10/16 10:48:20;;;;;;;14.20;2.30;;;;;;;9.07;83.73;100901.92;112774;1190;27239;-59
2021/10/16 10:51:00;;;;;;;18.00;2.50;;;;;;;9.10;83.30;100899.99;112845;1190;22435;-58
2021/10/16 10:53:42;;;;;;;21.50;4.00;;;;;;;9.12;83.41;100905.81;113676;1198;22484;-59
2021/10/16 10:56:22;;;;;;;13.80;2.60;;;;;;;9.14;83.37;100904.95;112780;1198;23012;-58
2021/10/16 10:59:08;;;;;;;16.20;3.30;;;;;;;9.14;83.13;100902.95;113189;1198;22482;-60
2021/10/16 11:02:04;;;;;;;13.50;2.30;;;;;;;9.16;82.89;100899.84;112864;1190;22446;-59
2021/10/16 11:04:47;;;;;;;12.60;2.20;;;;;;;9.20;83.10;100898.28;112402;1193;22474;-59
2021/10/16 11:07:40;;;;;;;15.80;3.00;;;;;;;9.24;82.48;100893.60;112508;1200;25216;-60
2021/10/16 11:10:11;;;;;;;13.30;1.90;;;;;;;9.31;81.73;100889.03;112977;1200;22431;-59
2021/10/16 11:12:44;;;;;;;16.30;1.90;;;;;;;9.34;81.39;100883.09;112337;1193;25167;-59
2021/10/16 11:15:16;;;;;;;7.30;1.30;;;;;;;9.40;80.64;100883.92;112351;1193;25066;-61
2021/10/16 11:17:50;;;;;;;11.90;1.60;;;;;;;9.45;79.88;100881.33;112007;1193;76507;-61
2021/10/16 11:20:33;;;;;;;12.80;1.90;;;;;;;9.51;79.82;100886.13;112665;1187;22538;-61
2021/10/16 11:23:04;;;;;;;15.10;2.20;;;;;;;9.56;80.13;100879.88;112747;1193;24196;-62
2021/10/16 11:25:37;;;;;;;8.80;1.60;;;;;;;9.61;79.73;100876.34;112603;1193;26411;-62
2021/10/16 11:28:11;;;;;;;13.70;1.60;;;;;;;9.66;79.84;100880.82;112506;1200;25030;-61
2021/10/16 11:30:44;;;;;;;10.60;1.50;;;;;;;9.73;79.46;100873.52;112478;1200;22428;-62
2021/10/16 11:33:17;;;;;;;11.20;1.40;;;;;;;9.81;79.70;100866.63;112527;1200;25070;-63
2021/10/16 11:35:49;;;;;;;12.80;1.50;;;;;;;9.91;79.38;100866.30;112654;1200;22428;-61
2021/10/16 11:38:23;;;;;;;12.50;2.00;;;;;;;10.00;78.41;100862.98;112712;1200;24090;-62
2021/10/16 11:40:55;;;;;;;9.00;1.20;;;;;;;10.06;78.48;100860.48;116859;1193;22222;-62
2021/10/16 11:43:28;;;;;;;6.50;1.30;;;;;;;10.14;77.79;100860.10;112798;1189;22460;-62